Forside
METAR-TAF:

METAR-TAF

Lufthavne :

Lublin, Polen

Breddekreds: 51-13-55N, længdekreds: 22-41-25E, højde: 203 m

Aktuelle vejr

Denne rapport blev lavet for 46 minutter siden, kl. 09:00 UTC
Vind 7 kt fra østsydøst
Temperatur 24°C
Fugtighed 47%
Tryk 1022 hPa
Sigt 10 km eller mere
ingen skyer under 1500m og ingen cumulonimbus

METAR: EPLB 260900Z 12007KT CAVOK 24/12 Q1022

Tid: 11:46 (09:46 UTC)

Vejrudsigter

Denne rapport blev lavet for 4 timer og 16 minutter siden, kl. 05:30 UTC
Foreløbig gælder fra 26 på 06 UTC til 27 på 06 UTC
Vind 8 kt fra østsydøst
Sigt 10 km eller mere
ingen skyer under 1500m og ingen cumulonimbus
Sandsynlighed 30% :
Midlertidig
fra 26 på 12 UTC til 26 på 16 UTC
Spredte skyer i en højde af 3000 ft, Cumulonimbus.

TAF: EPLB 260530Z 2606/2706 12008KT CAVOK PROB30 TEMPO 2612/2616 SCT030CB

Vejrobservationer og prognoser fra mere end 4000 lufthavne (METAR og TAF).

De gule og røde prikker repræsenterer de meteorologiske stationer.

Flyt musen over at se navnet på stationen.

Så klik over at se vejr observationer og prognoser.

At skifte det kort: Klik på de grønne knapper med et sort kors for at zoome ind; på den grønne knap med en bindestreg for at zoome ud; eller på de grønne pile for tilstødende kort.


METAR-TAF: